PWSweather.com
Personal Weather Stations
Station Observations
BEZINA
Slovenske KonjiceSI

Slovenske KonjiceSI

Lat: 46.358, Lon: 15.433

Elevation: 340

Station Type: Oregon WMR 200

http://www.slometeo.net/bezina/

Latest ConditionsUpdated 8:00:00 AM GMT+01:01 Tuesday, Sep 26, 2017
Currently Today's Max Today's Min Today's Average
Temperature 53.5°F11.9°C 53.5°F11.9°C 52.3°F11.3°C 53.0°F11.7°C
Dew Point 52.7°F11.5°C 52.7°F11.5°C 51.2°F10.7°C 52.0°F11.1°C
Winds Calm Calm 1.0 mph NE1.6 kmh NE - 0.1 mph 0.2 kmh
Wind Gusts 2.0 mph3.2 kmh 3.0 mph4.8 kmh - -
Humidity 97% 97% 96% 97%
Pressure 30.22 in1023.4 mb 30.22 in1023.4 mb 30.19 in1022.4 mb -
Precipitation - 0.05 in1.3 mm - -
Hour Temp Dew Point Humidity Winds Wind Gusts Pressure Precip Precip Rate Daily Precip Total
08:00 AM 53.5°F11.9°C 52.7°F11.5°C 97% Calm Calm 2.0 mph3.2 kmh 30.22 in1023.4 mb 0.00 in0.0 mm 0.00 in0.0 mm 0.05 in1.3 mm
07:45 AM 53.5°F11.9°C 52.7°F11.5°C 97% 0.5 mph NNE0.8 kmh NNE 2.0 mph3.2 kmh 30.22 in1023.4 mb 0.00 in0.0 mm 0.00 in0.0 mm 0.05 in1.3 mm
07:30 AM 53.5°F11.9°C 52.7°F11.5°C 97% Calm Calm -- 30.21 in1023.0 mb 0.00 in0.0 mm 0.00 in0.0 mm 0.05 in1.3 mm
07:15 AM 53.4°F11.9°C 52.6°F11.4°C 97% Calm Calm -- 30.21 in1023.0 mb 0.00 in0.0 mm 0.00 in0.0 mm 0.05 in1.3 mm
07:00 AM 53.3°F11.8°C 52.5°F11.4°C 97% Calm Calm -- 30.20 in1022.7 mb 0.01 in0.3 mm 0.00 in0.0 mm 0.05 in1.3 mm
06:45 AM 53.3°F11.8°C 52.5°F11.4°C 97% Calm Calm 2.0 mph3.2 kmh 30.20 in1022.7 mb 0.01 in0.3 mm 0.00 in0.0 mm 0.05 in1.3 mm
06:30 AM 53.2°F11.8°C 52.4°F11.3°C 97% Calm Calm -- 30.20 in1022.7 mb 0.02 in0.5 mm 0.00 in0.0 mm 0.05 in1.3 mm
06:15 AM 53.3°F11.8°C 52.5°F11.4°C 97% Calm Calm 2.0 mph3.2 kmh 30.20 in1022.7 mb 0.02 in0.5 mm 0.04 in1.0 mm 0.05 in1.3 mm
06:00 AM 53.3°F11.8°C 52.5°F11.4°C 97% Calm Calm -- 30.20 in1022.7 mb 0.01 in0.3 mm 0.00 in0.0 mm 0.04 in1.0 mm
05:45 AM 53.2°F11.8°C 52.4°F11.3°C 97% Calm Calm 2.0 mph3.2 kmh 30.20 in1022.7 mb 0.01 in0.3 mm 0.04 in1.0 mm 0.04 in1.0 mm
05:30 AM 53.2°F11.8°C 52.4°F11.3°C 97% Calm Calm -- 30.19 in1022.4 mb 0.00 in0.0 mm 0.00 in0.0 mm 0.03 in0.8 mm
05:15 AM 53.2°F11.8°C 52.4°F11.3°C 97% Calm Calm -- 30.19 in1022.4 mb 0.00 in0.0 mm 0.00 in0.0 mm 0.03 in0.8 mm
05:00 AM 53.2°F11.8°C 52.4°F11.3°C 97% Calm Calm -- 30.19 in1022.4 mb 0.00 in0.0 mm 0.00 in0.0 mm 0.03 in0.8 mm
04:45 AM 53.2°F11.8°C 52.4°F11.3°C 97% Calm Calm -- 30.19 in1022.4 mb 0.01 in0.3 mm 0.00 in0.0 mm 0.03 in0.8 mm
04:30 AM 53.1°F11.7°C 52.3°F11.3°C 97% Calm Calm -- 30.19 in1022.4 mb 0.01 in0.3 mm 0.00 in0.0 mm 0.03 in0.8 mm
04:15 AM 53.1°F11.7°C 52.3°F11.3°C 97% Calm Calm -- 30.19 in1022.4 mb 0.01 in0.3 mm 0.00 in0.0 mm 0.03 in0.8 mm
04:00 AM 53.0°F11.7°C 52.2°F11.2°C 97% 0.4 mph NNE0.6 kmh NNE 2.0 mph3.2 kmh 30.19 in1022.4 mb 0.02 in0.5 mm 0.01 in0.3 mm 0.03 in0.8 mm
03:45 AM 53.0°F11.7°C 51.9°F11.1°C 96% Calm Calm -- 30.19 in1022.4 mb 0.01 in0.3 mm 0.00 in0.0 mm 0.02 in0.5 mm
03:30 AM 52.9°F11.6°C 51.8°F11.0°C 96% Calm Calm -- 30.19 in1022.4 mb 0.01 in0.3 mm 0.00 in0.0 mm 0.02 in0.5 mm
03:15 AM 52.8°F11.6°C 51.7°F10.9°C 96% Calm Calm -- 30.19 in1022.4 mb 0.01 in0.3 mm 0.04 in1.0 mm 0.02 in0.5 mm
03:00 AM 52.7°F11.5°C 51.6°F10.9°C 96% Calm Calm -- 30.19 in1022.4 mb 0.00 in0.0 mm 0.00 in0.0 mm 0.02 in0.5 mm
02:45 AM 52.7°F11.5°C 51.6°F10.9°C 96% Calm Calm -- 30.20 in1022.7 mb 0.00 in0.0 mm 0.00 in0.0 mm 0.02 in0.5 mm
02:30 AM 52.7°F11.5°C 51.6°F10.9°C 96% Calm Calm -- 30.20 in1022.7 mb 0.00 in0.0 mm 0.00 in0.0 mm 0.02 in0.5 mm
02:15 AM 52.6°F11.4°C 51.5°F10.8°C 96% Calm Calm -- 30.20 in1022.7 mb 0.01 in0.3 mm 0.00 in0.0 mm 0.02 in0.5 mm
02:00 AM 52.6°F11.4°C 51.5°F10.8°C 96% 0.8 mph NNE1.3 kmh NNE 2.0 mph3.2 kmh 30.20 in1022.7 mb 0.02 in0.5 mm 0.00 in0.0 mm 0.02 in0.5 mm
01:45 AM 52.7°F11.5°C 51.6°F10.9°C 96% 1.0 mph NE1.6 kmh NE 3.0 mph4.8 kmh 30.20 in1022.7 mb 0.02 in0.5 mm 0.00 in0.0 mm 0.02 in0.5 mm
01:30 AM 52.8°F11.6°C 51.7°F10.9°C 96% Calm Calm 1.0 mph1.6 kmh 30.20 in1022.7 mb 0.02 in0.5 mm 0.04 in1.0 mm 0.02 in0.5 mm
01:15 AM 52.7°F11.5°C 51.6°F10.9°C 96% Calm Calm -- 30.20 in1022.7 mb 0.01 in0.3 mm 0.04 in1.0 mm 0.01 in0.3 mm
01:00 AM 52.6°F11.4°C 51.5°F10.8°C 96% 0.9 mph S1.4 kmh S 3.0 mph4.8 kmh 30.20 in1022.7 mb 0.00 in0.0 mm 0.00 in0.0 mm 0.00 in0.0 mm
12:45 AM 52.5°F11.4°C 51.4°F10.8°C 96% Calm Calm 2.0 mph3.2 kmh 30.20 in1022.7 mb 0.00 in0.0 mm 0.00 in0.0 mm 0.00 in0.0 mm
12:30 AM 52.4°F11.3°C 51.3°F10.7°C 96% Calm Calm -- 30.20 in1022.7 mb 0.00 in0.0 mm 0.00 in0.0 mm 0.00 in0.0 mm
12:15 AM 52.3°F11.3°C 51.2°F10.7°C 96% Calm Calm -- 30.20 in1022.7 mb 0.00 in0.0 mm 0.00 in0.0 mm 0.00 in0.0 mm
12:00 AM 52.5°F11.4°C 51.4°F10.8°C 96% Calm Calm -- 30.20 in1022.7 mb 0.00 in0.0 mm 0.00 in0.0 mm 0.00 in0.0 mm